sensor_id;sensor_type;location;lat;lon;timestamp;pressure;altitude;pressure_sealevel;temperature;humidity
73429;BME280;61643;49.564;17.412;2023-02-28T00:01:25;99277.09;;;-2.40;71.79
73429;BME280;61643;49.564;17.412;2023-02-28T00:03:51;99271.63;;;-2.38;72.03
73429;BME280;61643;49.564;17.412;2023-02-28T00:06:17;99279.28;;;-2.35;72.21
73429;BME280;61643;49.564;17.412;2023-02-28T00:08:44;99280.78;;;-2.33;71.54
73429;BME280;61643;49.564;17.412;2023-02-28T00:11:11;99286.88;;;-2.32;72.35
73429;BME280;61643;49.564;17.412;2023-02-28T00:13:41;99276.66;;;-2.35;72.00
73429;BME280;61643;49.564;17.412;2023-02-28T00:16:13;99274.50;;;-2.50;72.69
73429;BME280;61643;49.564;17.412;2023-02-28T00:18:40;99276.69;;;-2.45;72.74
73429;BME280;61643;49.564;17.412;2023-02-28T00:21:06;99262.53;;;-2.44;72.57
73429;BME280;61643;49.564;17.412;2023-02-28T00:23:33;99266.97;;;-2.44;73.35
73429;BME280;61643;49.564;17.412;2023-02-28T00:25:59;99266.09;;;-2.35;72.67
73429;BME280;61643;49.564;17.412;2023-02-28T00:28:25;99268.72;;;-2.35;72.03
73429;BME280;61643;49.564;17.412;2023-02-28T00:30:51;99277.00;;;-2.30;72.05
73429;BME280;61643;49.564;17.412;2023-02-28T00:33:17;99271.97;;;-2.24;71.73
73429;BME280;61643;49.564;17.412;2023-02-28T00:35:43;99276.69;;;-2.27;72.38
73429;BME280;61643;49.564;17.412;2023-02-28T00:38:12;99265.19;;;-2.26;72.52
73429;BME280;61643;49.564;17.412;2023-02-28T00:40:38;99268.66;;;-2.26;72.51
73429;BME280;61643;49.564;17.412;2023-02-28T00:43:04;99264.06;;;-2.24;72.55
73429;BME280;61643;49.564;17.412;2023-02-28T00:45:30;99263.53;;;-2.27;72.32
73429;BME280;61643;49.564;17.412;2023-02-28T00:47:56;99262.03;;;-2.12;71.81
73429;BME280;61643;49.564;17.412;2023-02-28T00:50:22;99265.63;;;-2.13;72.42
73429;BME280;61643;49.564;17.412;2023-02-28T00:52:48;99266.25;;;-2.19;71.95
73429;BME280;61643;49.564;17.412;2023-02-28T00:55:14;99266.69;;;-2.24;73.26
73429;BME280;61643;49.564;17.412;2023-02-28T00:57:40;99273.78;;;-2.24;72.37
73429;BME280;61643;49.564;17.412;2023-02-28T01:00:07;99267.22;;;-2.20;71.92
73429;BME280;61643;49.564;17.412;2023-02-28T01:02:33;99268.53;;;-2.24;72.22
73429;BME280;61643;49.564;17.412;2023-02-28T01:04:59;99262.56;;;-2.26;72.42
73429;BME280;61643;49.564;17.412;2023-02-28T01:07:25;99270.38;;;-2.34;73.11
73429;BME280;61643;49.564;17.412;2023-02-28T01:09:51;99259.16;;;-2.19;72.16
73429;BME280;61643;49.564;17.412;2023-02-28T01:12:17;99257.97;;;-2.24;71.93
73429;BME280;61643;49.564;17.412;2023-02-28T01:14:43;99257.13;;;-2.25;72.77
73429;BME280;61643;49.564;17.412;2023-02-28T01:17:09;99266.03;;;-2.26;72.82
73429;BME280;61643;49.564;17.412;2023-02-28T01:19:35;99260.59;;;-2.24;72.80
73429;BME280;61643;49.564;17.412;2023-02-28T01:22:03;99266.84;;;-2.25;72.87
73429;BME280;61643;49.564;17.412;2023-02-28T01:24:29;99259.25;;;-2.28;72.65
73429;BME280;61643;49.564;17.412;2023-02-28T01:26:55;99257.59;;;-2.29;72.52
73429;BME280;61643;49.564;17.412;2023-02-28T01:29:21;99256.00;;;-2.22;72.17
73429;BME280;61643;49.564;17.412;2023-02-28T01:31:47;99257.28;;;-2.26;72.33
73429;BME280;61643;49.564;17.412;2023-02-28T01:34:13;99256.75;;;-2.30;72.44
73429;BME280;61643;49.564;17.412;2023-02-28T01:36:39;99265.06;;;-2.25;72.38
73429;BME280;61643;49.564;17.412;2023-02-28T01:39:05;99260.66;;;-2.34;73.12
73429;BME280;61643;49.564;17.412;2023-02-28T01:41:34;99254.03;;;-2.38;73.85
73429;BME280;61643;49.564;17.412;2023-02-28T01:46:30;99247.66;;;-2.35;73.70
73429;BME280;61643;49.564;17.412;2023-02-28T01:49:07;99254.78;;;-2.28;73.40
73429;BME280;61643;49.564;17.412;2023-02-28T01:51:47;99254.78;;;-2.28;73.59
73429;BME280;61643;49.564;17.412;2023-02-28T01:54:19;99247.69;;;-2.27;73.23
73429;BME280;61643;49.564;17.412;2023-02-28T01:56:53;99246.66;;;-2.34;73.55
73429;BME280;61643;49.564;17.412;2023-02-28T01:59:38;99250.03;;;-2.42;73.95
73429;BME280;61643;49.564;17.412;2023-02-28T02:02:10;99243.78;;;-2.41;73.45
73429;BME280;61643;49.564;17.412;2023-02-28T02:07:23;99259.06;;;-2.44;73.31
73429;BME280;61643;49.564;17.412;2023-02-28T02:09:49;99248.72;;;-2.56;74.35
73429;BME280;61643;49.564;17.412;2023-02-28T02:14:58;99258.41;;;-2.46;73.80
73429;BME280;61643;49.564;17.412;2023-02-28T02:17:35;99255.59;;;-2.45;74.19
73429;BME280;61643;49.564;17.412;2023-02-28T02:22:47;99264.25;;;-2.53;74.75
73429;BME280;61643;49.564;17.412;2023-02-28T02:35:57;99247.91;;;-2.56;74.11
73429;BME280;61643;49.564;17.412;2023-02-28T02:38:49;99255.66;;;-2.55;73.63
73429;BME280;61643;49.564;17.412;2023-02-28T02:43:53;99248.72;;;-2.56;73.62
73429;BME280;61643;49.564;17.412;2023-02-28T02:46:37;99248.59;;;-2.54;73.86
73429;BME280;61643;49.564;17.412;2023-02-28T02:49:09;99254.84;;;-2.55;74.27
73429;BME280;61643;49.564;17.412;2023-02-28T02:51:40;99251.75;;;-2.68;74.55
73429;BME280;61643;49.564;17.412;2023-02-28T02:56:44;99248.63;;;-2.64;75.05
73429;BME280;61643;49.564;17.412;2023-02-28T02:59:12;99255.44;;;-2.61;74.91
73429;BME280;61643;49.564;17.412;2023-02-28T03:01:41;99252.41;;;-2.66;75.65
73429;BME280;61643;49.564;17.412;2023-02-28T03:04:11;99250.47;;;-2.64;75.16
73429;BME280;61643;49.564;17.412;2023-02-28T03:06:37;99258.06;;;-2.61;75.08
73429;BME280;61643;49.564;17.412;2023-02-28T03:09:03;99259.03;;;-2.62;74.14
73429;BME280;61643;49.564;17.412;2023-02-28T03:11:30;99257.00;;;-2.68;75.56
73429;BME280;61643;49.564;17.412;2023-02-28T03:17:30;99261.56;;;-2.70;74.73
73429;BME280;61643;49.564;17.412;2023-02-28T03:23:18;99256.47;;;-2.72;75.40
73429;BME280;61643;49.564;17.412;2023-02-28T03:31:35;99262.41;;;-2.70;74.93
73429;BME280;61643;49.564;17.412;2023-02-28T03:34:12;99267.25;;;-2.65;75.12
73429;BME280;61643;49.564;17.412;2023-02-28T03:36:45;99263.34;;;-2.61;73.97
73429;BME280;61643;49.564;17.412;2023-02-28T03:39:37;99270.84;;;-2.66;74.81
73429;BME280;61643;49.564;17.412;2023-02-28T03:42:09;99272.75;;;-2.59;74.53
73429;BME280;61643;49.564;17.412;2023-02-28T03:44:47;99270.41;;;-2.62;73.97
73429;BME280;61643;49.564;17.412;2023-02-28T03:47:17;99270.25;;;-2.60;75.02
73429;BME280;61643;49.564;17.412;2023-02-28T03:49:54;99270.19;;;-2.68;75.68
73429;BME280;61643;49.564;17.412;2023-02-28T03:52:25;99276.41;;;-2.69;74.75
73429;BME280;61643;49.564;17.412;2023-02-28T03:54:56;99271.81;;;-2.67;75.09
73429;BME280;61643;49.564;17.412;2023-02-28T03:57:35;99277.09;;;-2.67;74.46
73429;BME280;61643;49.564;17.412;2023-02-28T04:00:19;99278.03;;;-2.59;74.78
73429;BME280;61643;49.564;17.412;2023-02-28T04:02:45;99281.63;;;-2.60;74.73
73429;BME280;61643;49.564;17.412;2023-02-28T04:05:11;99285.25;;;-2.61;74.97
73429;BME280;61643;49.564;17.412;2023-02-28T04:07:37;99282.31;;;-2.58;74.05
73429;BME280;61643;49.564;17.412;2023-02-28T04:10:04;99288.13;;;-2.54;73.66
73429;BME280;61643;49.564;17.412;2023-02-28T04:12:30;99290.06;;;-2.56;74.37
73429;BME280;61643;49.564;17.412;2023-02-28T04:14:56;99284.13;;;-2.58;73.68
73429;BME280;61643;49.564;17.412;2023-02-28T04:17:22;99295.19;;;-2.55;74.75
73429;BME280;61643;49.564;17.412;2023-02-28T04:19:48;99288.03;;;-2.62;74.30
73429;BME280;61643;49.564;17.412;2023-02-28T04:22:15;99284.75;;;-2.74;75.28
73429;BME280;61643;49.564;17.412;2023-02-28T04:24:42;99283.63;;;-2.71;75.29
73429;BME280;61643;49.564;17.412;2023-02-28T04:27:09;99300.63;;;-2.83;75.37
73429;BME280;61643;49.564;17.412;2023-02-28T04:29:35;99303.91;;;-2.81;76.03
73429;BME280;61643;49.564;17.412;2023-02-28T04:32:03;99299.66;;;-2.92;76.04
73429;BME280;61643;49.564;17.412;2023-02-28T04:34:31;99297.19;;;-2.93;76.25
73429;BME280;61643;49.564;17.412;2023-02-28T04:36:57;99296.06;;;-2.91;76.08
73429;BME280;61643;49.564;17.412;2023-02-28T04:39:26;99295.09;;;-2.90;76.63
73429;BME280;61643;49.564;17.412;2023-02-28T04:41:52;99286.47;;;-2.82;74.98
73429;BME280;61643;49.564;17.412;2023-02-28T04:44:18;99287.97;;;-2.80;75.74
73429;BME280;61643;49.564;17.412;2023-02-28T04:46:44;99290.84;;;-2.73;75.34
73429;BME280;61643;49.564;17.412;2023-02-28T04:49:11;99288.53;;;-2.76;74.75
73429;BME280;61643;49.564;17.412;2023-02-28T04:51:37;99281.75;;;-2.79;75.79
73429;BME280;61643;49.564;17.412;2023-02-28T04:54:03;99287.97;;;-2.80;75.05
73429;BME280;61643;49.564;17.412;2023-02-28T04:56:29;99292.66;;;-2.74;75.98
73429;BME280;61643;49.564;17.412;2023-02-28T04:58:55;99289.66;;;-2.79;75.54
73429;BME280;61643;49.564;17.412;2023-02-28T05:01:24;99285.25;;;-2.88;76.11
73429;BME280;61643;49.564;17.412;2023-02-28T05:03:52;99284.66;;;-2.82;75.88
73429;BME280;61643;49.564;17.412;2023-02-28T05:06:19;99281.88;;;-2.80;75.60
73429;BME280;61643;49.564;17.412;2023-02-28T05:08:46;99295.66;;;-2.86;76.30
73429;BME280;61643;49.564;17.412;2023-02-28T05:11:32;99300.63;;;-2.83;75.72
73429;BME280;61643;49.564;17.412;2023-02-28T05:14:06;99300.06;;;-2.87;76.88
73429;BME280;61643;49.564;17.412;2023-02-28T05:16:33;99291.75;;;-2.82;76.05
73429;BME280;61643;49.564;17.412;2023-02-28T05:18:59;99299.50;;;-2.81;75.53
73429;BME280;61643;49.564;17.412;2023-02-28T05:21:41;99305.59;;;-2.80;76.20
73429;BME280;61643;49.564;17.412;2023-02-28T05:24:14;99304.69;;;-2.71;75.47
73429;BME280;61643;49.564;17.412;2023-02-28T05:26:42;99301.34;;;-2.64;75.31
73429;BME280;61643;49.564;17.412;2023-02-28T05:29:09;99302.47;;;-2.66;75.00
73429;BME280;61643;49.564;17.412;2023-02-28T05:31:35;99305.75;;;-2.55;74.09
73429;BME280;61643;49.564;17.412;2023-02-28T05:34:02;99316.88;;;-2.61;74.66
73429;BME280;61643;49.564;17.412;2023-02-28T05:36:30;99311.56;;;-2.51;73.60
73429;BME280;61643;49.564;17.412;2023-02-28T05:38:56;99315.03;;;-2.51;74.44
73429;BME280;61643;49.564;17.412;2023-02-28T05:41:22;99307.94;;;-2.50;73.82
73429;BME280;61643;49.564;17.412;2023-02-28T05:43:48;99312.22;;;-2.49;73.72
73429;BME280;61643;49.564;17.412;2023-02-28T05:46:14;99319.03;;;-2.46;74.46
73429;BME280;61643;49.564;17.412;2023-02-28T05:48:41;99317.06;;;-2.44;74.48
73429;BME280;61643;49.564;17.412;2023-02-28T05:51:08;99318.34;;;-2.31;73.06
73429;BME280;61643;49.564;17.412;2023-02-28T05:53:35;99321.81;;;-2.30;74.21
73429;BME280;61643;49.564;17.412;2023-02-28T05:56:01;99329.06;;;-2.32;73.54
73429;BME280;61643;49.564;17.412;2023-02-28T05:58:27;99316.94;;;-2.25;74.25
73429;BME280;61643;49.564;17.412;2023-02-28T06:01:00;99323.72;;;-2.23;72.74
73429;BME280;61643;49.564;17.412;2023-02-28T06:03:27;99327.31;;;-2.24;73.43
73429;BME280;61643;49.564;17.412;2023-02-28T06:05:53;99339.41;;;-2.21;73.53
73429;BME280;61643;49.564;17.412;2023-02-28T06:08:19;99345.88;;;-2.16;71.93
73429;BME280;61643;49.564;17.412;2023-02-28T06:10:45;99341.00;;;-2.11;71.26
73429;BME280;61643;49.564;17.412;2023-02-28T06:13:11;99345.16;;;-2.08;72.55
73429;BME280;61643;49.564;17.412;2023-02-28T06:15:38;99349.88;;;-2.12;72.71
73429;BME280;61643;49.564;17.412;2023-02-28T06:18:04;99347.34;;;-2.04;72.67
73429;BME280;61643;49.564;17.412;2023-02-28T06:20:30;99356.84;;;-1.93;71.67
73429;BME280;61643;49.564;17.412;2023-02-28T06:22:57;99356.78;;;-1.83;71.28
73429;BME280;61643;49.564;17.412;2023-02-28T06:25:27;99369.38;;;-1.77;71.77
73429;BME280;61643;49.564;17.412;2023-02-28T06:27:54;99368.06;;;-1.73;71.49
73429;BME280;61643;49.564;17.412;2023-02-28T06:30:20;99355.56;;;-1.71;71.15
73429;BME280;61643;49.564;17.412;2023-02-28T06:32:53;99376.28;;;-1.59;71.11
73429;BME280;61643;49.564;17.412;2023-02-28T06:35:19;99369.91;;;-1.56;71.79
73429;BME280;61643;49.564;17.412;2023-02-28T06:37:45;99370.66;;;-1.64;70.54
73429;BME280;61643;49.564;17.412;2023-02-28T06:40:11;99365.97;;;-1.52;70.41
73429;BME280;61643;49.564;17.412;2023-02-28T06:42:38;99374.50;;;-1.58;71.18
73429;BME280;61643;49.564;17.412;2023-02-28T06:45:04;99373.91;;;-1.52;69.96
73429;BME280;61643;49.564;17.412;2023-02-28T06:47:35;99370.03;;;-1.58;71.40
73429;BME280;61643;49.564;17.412;2023-02-28T06:50:02;99366.13;;;-1.54;70.82
73429;BME280;61643;49.564;17.412;2023-02-28T06:52:29;99375.84;;;-1.54;70.02
73429;BME280;61643;49.564;17.412;2023-02-28T06:54:55;99372.25;;;-1.53;70.40
73429;BME280;61643;49.564;17.412;2023-02-28T06:57:30;99366.44;;;-1.57;70.12
73429;BME280;61643;49.564;17.412;2023-02-28T06:59:58;99383.69;;;-1.62;71.03
73429;BME280;61643;49.564;17.412;2023-02-28T07:02:24;99372.69;;;-1.58;71.30
73429;BME280;61643;49.564;17.412;2023-02-28T07:04:50;99371.41;;;-1.54;70.01
73429;BME280;61643;49.564;17.412;2023-02-28T07:07:16;99380.69;;;-1.50;70.17
73429;BME280;61643;49.564;17.412;2023-02-28T07:09:42;99381.56;;;-1.59;70.43
73429;BME280;61643;49.564;17.412;2023-02-28T07:12:08;99385.97;;;-1.50;70.58
73429;BME280;61643;49.564;17.412;2023-02-28T07:14:36;99389.56;;;-1.51;71.18
73429;BME280;61643;49.564;17.412;2023-02-28T07:17:02;99390.53;;;-1.52;71.30
73429;BME280;61643;49.564;17.412;2023-02-28T07:19:28;99395.59;;;-1.40;71.08
73429;BME280;61643;49.564;17.412;2023-02-28T07:21:54;99388.81;;;-1.43;70.74
73429;BME280;61643;49.564;17.412;2023-02-28T07:24:20;99391.13;;;-1.22;69.70
73429;BME280;61643;49.564;17.412;2023-02-28T07:26:46;99403.34;;;-1.21;69.84
73429;BME280;61643;49.564;17.412;2023-02-28T07:29:12;99403.28;;;-1.29;70.00
73429;BME280;61643;49.564;17.412;2023-02-28T07:31:38;99398.06;;;-1.21;69.64
73429;BME280;61643;49.564;17.412;2023-02-28T07:34:04;99405.75;;;-1.10;69.71
73429;BME280;61643;49.564;17.412;2023-02-28T07:36:30;99399.78;;;-0.94;68.26
73429;BME280;61643;49.564;17.412;2023-02-28T07:38:58;99407.22;;;-0.90;68.26
73429;BME280;61643;49.564;17.412;2023-02-28T07:41:24;99409.59;;;-0.79;68.99
73429;BME280;61643;49.564;17.412;2023-02-28T07:43:53;99413.81;;;-0.68;67.79
73429;BME280;61643;49.564;17.412;2023-02-28T07:46:20;99415.28;;;-0.74;67.32
73429;BME280;61643;49.564;17.412;2023-02-28T07:48:46;99415.47;;;-0.67;67.23
73429;BME280;61643;49.564;17.412;2023-02-28T07:51:13;99394.63;;;-0.70;67.42
73429;BME280;61643;49.564;17.412;2023-02-28T07:53:40;99418.81;;;-0.65;66.62
73429;BME280;61643;49.564;17.412;2023-02-28T07:56:06;99415.66;;;-0.61;67.24
73429;BME280;61643;49.564;17.412;2023-02-28T07:58:33;99427.59;;;-0.57;66.71
73429;BME280;61643;49.564;17.412;2023-02-28T08:01:09;99414.53;;;-0.58;66.21
73429;BME280;61643;49.564;17.412;2023-02-28T08:03:35;99407.00;;;-0.45;66.80
73429;BME280;61643;49.564;17.412;2023-02-28T08:06:03;99399.19;;;-0.55;66.49
73429;BME280;61643;49.564;17.412;2023-02-28T08:08:29;99407.84;;;-0.44;66.51
73429;BME280;61643;49.564;17.412;2023-02-28T08:11:01;99410.47;;;-0.44;66.01
73429;BME280;61643;49.564;17.412;2023-02-28T08:13:28;99411.84;;;-0.32;66.52
73429;BME280;61643;49.564;17.412;2023-02-28T08:15:55;99413.56;;;-0.23;66.49
73429;BME280;61643;49.564;17.412;2023-02-28T08:18:21;99412.91;;;-0.17;65.43
73429;BME280;61643;49.564;17.412;2023-02-28T08:20:48;99414.72;;;-0.26;65.29
73429;BME280;61643;49.564;17.412;2023-02-28T08:23:14;99417.38;;;-0.18;65.33
73429;BME280;61643;49.564;17.412;2023-02-28T08:25:40;99421.16;;;-0.20;65.23
73429;BME280;61643;49.564;17.412;2023-02-28T08:28:06;99416.84;;;-0.21;65.04
73429;BME280;61643;49.564;17.412;2023-02-28T08:30:32;99407.56;;;-0.25;65.46
73429;BME280;61643;49.564;17.412;2023-02-28T08:32:58;99426.88;;;0.01;66.21
73429;BME280;61643;49.564;17.412;2023-02-28T08:35:24;99427.91;;;0.08;64.57
73429;BME280;61643;49.564;17.412;2023-02-28T08:37:50;99419.00;;;0.17;62.87
73429;BME280;61643;49.564;17.412;2023-02-28T08:40:16;99427.28;;;0.14;61.72
73429;BME280;61643;49.564;17.412;2023-02-28T08:42:45;99422.94;;;0.05;62.02
73429;BME280;61643;49.564;17.412;2023-02-28T08:45:12;99432.84;;;0.11;61.87
73429;BME280;61643;49.564;17.412;2023-02-28T08:47:38;99423.47;;;0.17;61.79
73429;BME280;61643;49.564;17.412;2023-02-28T08:50:05;99433.88;;;0.10;60.54
73429;BME280;61643;49.564;17.412;2023-02-28T08:52:32;99435.88;;;0.16;60.55
73429;BME280;61643;49.564;17.412;2023-02-28T08:54:58;99439.50;;;0.07;61.05
73429;BME280;61643;49.564;17.412;2023-02-28T08:57:24;99428.28;;;0.21;61.36
73429;BME280;61643;49.564;17.412;2023-02-28T08:59:53;99423.31;;;0.26;61.88
73429;BME280;61643;49.564;17.412;2023-02-28T09:02:18;99420.34;;;0.21;62.14
73429;BME280;61643;49.564;17.412;2023-02-28T09:04:45;99428.28;;;0.29;61.47
73429;BME280;61643;49.564;17.412;2023-02-28T09:07:11;99433.41;;;0.23;61.76
73429;BME280;61643;49.564;17.412;2023-02-28T09:09:37;99424.16;;;0.27;60.59
73429;BME280;61643;49.564;17.412;2023-02-28T09:12:26;99438.53;;;0.24;60.93
73429;BME280;61643;49.564;17.412;2023-02-28T09:14:53;99438.38;;;0.26;61.26
73429;BME280;61643;49.564;17.412;2023-02-28T09:17:19;99431.75;;;0.30;60.76
73429;BME280;61643;49.564;17.412;2023-02-28T09:19:48;99441.56;;;0.45;60.44
73429;BME280;61643;49.564;17.412;2023-02-28T09:22:14;99439.91;;;0.44;60.46
73429;BME280;61643;49.564;17.412;2023-02-28T09:24:40;99431.31;;;0.42;59.76
73429;BME280;61643;49.564;17.412;2023-02-28T09:27:06;99429.78;;;0.40;60.55
73429;BME280;61643;49.564;17.412;2023-02-28T09:29:33;99439.59;;;0.47;60.20
73429;BME280;61643;49.564;17.412;2023-02-28T09:31:59;99435.47;;;0.53;60.95
73429;BME280;61643;49.564;17.412;2023-02-28T09:34:26;99441.28;;;0.57;60.85
73429;BME280;61643;49.564;17.412;2023-02-28T09:36:52;99421.91;;;0.56;60.35
73429;BME280;61643;49.564;17.412;2023-02-28T09:39:21;99435.81;;;0.66;59.22
73429;BME280;61643;49.564;17.412;2023-02-28T09:41:50;99423.91;;;0.70;60.37
73429;BME280;61643;49.564;17.412;2023-02-28T09:46:59;99435.97;;;0.73;62.39
73429;BME280;61643;49.564;17.412;2023-02-28T09:49:38;99437.16;;;0.78;60.53
73429;BME280;61643;49.564;17.412;2023-02-28T09:52:13;99435.84;;;0.82;60.87
73429;BME280;61643;49.564;17.412;2023-02-28T09:54:41;99436.31;;;0.70;60.81
73429;BME280;61643;49.564;17.412;2023-02-28T09:57:32;99441.63;;;0.78;60.64
73429;BME280;61643;49.564;17.412;2023-02-28T10:00:06;99441.16;;;0.90;61.16
73429;BME280;61643;49.564;17.412;2023-02-28T10:05:41;99437.00;;;0.96;60.02
73429;BME280;61643;49.564;17.412;2023-02-28T10:08:15;99443.63;;;1.00;59.85
73429;BME280;61643;49.564;17.412;2023-02-28T10:10:46;99434.00;;;0.99;59.31
73429;BME280;61643;49.564;17.412;2023-02-28T10:13:17;99430.38;;;1.00;59.34
73429;BME280;61643;49.564;17.412;2023-02-28T10:15:47;99434.84;;;0.91;60.42
73429;BME280;61643;49.564;17.412;2023-02-28T10:18:24;99431.69;;;1.04;59.07
73429;BME280;61643;49.564;17.412;2023-02-28T10:20:53;99423.22;;;1.17;58.51
73429;BME280;61643;49.564;17.412;2023-02-28T10:23:27;99428.19;;;1.20;58.57
73429;BME280;61643;49.564;17.412;2023-02-28T10:25:59;99425.72;;;1.26;58.48
73429;BME280;61643;49.564;17.412;2023-02-28T10:28:26;99418.06;;;1.31;57.70
73429;BME280;61643;49.564;17.412;2023-02-28T10:30:54;99420.38;;;1.34;57.22
73429;BME280;61643;49.564;17.412;2023-02-28T10:33:28;99411.09;;;1.30;58.10
73429;BME280;61643;49.564;17.412;2023-02-28T10:35:54;99413.59;;;1.32;57.21
73429;BME280;61643;49.564;17.412;2023-02-28T10:43:31;99400.31;;;1.40;58.77
73429;BME280;61643;49.564;17.412;2023-02-28T10:48:40;99393.84;;;1.42;60.44
73429;BME280;61643;49.564;17.412;2023-02-28T10:51:13;99397.97;;;1.53;58.34
73429;BME280;61643;49.564;17.412;2023-02-28T10:58:56;99394.78;;;1.66;59.58
73429;BME280;61643;49.564;17.412;2023-02-28T11:03:58;99390.47;;;1.65;57.58
73429;BME280;61643;49.564;17.412;2023-02-28T11:06:32;99393.94;;;1.73;58.77
73429;BME280;61643;49.564;17.412;2023-02-28T11:09:06;99384.78;;;1.76;57.96
73429;BME280;61643;49.564;17.412;2023-02-28T11:11:45;99387.78;;;1.73;58.52
73429;BME280;61643;49.564;17.412;2023-02-28T11:14:21;99389.09;;;1.77;57.88
73429;BME280;61643;49.564;17.412;2023-02-28T11:16:48;99384.56;;;1.85;56.72
73429;BME280;61643;49.564;17.412;2023-02-28T11:19:22;99378.31;;;1.78;57.01
73429;BME280;61643;49.564;17.412;2023-02-28T11:21:57;99380.28;;;1.84;58.03
73429;BME280;61643;49.564;17.412;2023-02-28T11:26:57;99375.13;;;1.83;56.73
73429;BME280;61643;49.564;17.412;2023-02-28T11:29:31;99373.22;;;1.99;57.19
73429;BME280;61643;49.564;17.412;2023-02-28T11:32:21;99373.91;;;2.02;55.17
73429;BME280;61643;49.564;17.412;2023-02-28T11:37:27;99366.59;;;1.95;56.96
73429;BME280;61643;49.564;17.412;2023-02-28T11:39:54;99366.13;;;1.92;56.28
73429;BME280;61643;49.564;17.412;2023-02-28T11:47:55;99366.78;;;1.94;58.00
73429;BME280;61643;49.564;17.412;2023-02-28T11:50:47;99373.56;;;1.96;57.32
73429;BME280;61643;49.564;17.412;2023-02-28T11:56:30;99361.50;;;1.86;57.17
73429;BME280;61643;49.564;17.412;2023-02-28T11:59:08;99360.03;;;1.83;56.69
73429;BME280;61643;49.564;17.412;2023-02-28T12:15:28;99343.16;;;2.07;58.16
73429;BME280;61643;49.564;17.412;2023-02-28T12:18:17;99351.56;;;2.19;57.81
73429;BME280;61643;49.564;17.412;2023-02-28T12:28:52;99341.88;;;2.48;58.11
73429;BME280;61643;49.564;17.412;2023-02-28T12:31:39;99341.41;;;2.45;57.63
73429;BME280;61643;49.564;17.412;2023-02-28T12:34:10;99337.81;;;2.38;57.39
73429;BME280;61643;49.564;17.412;2023-02-28T12:36:39;99334.69;;;2.34;56.94
73429;BME280;61643;49.564;17.412;2023-02-28T12:39:14;99334.81;;;2.41;56.80
73429;BME280;61643;49.564;17.412;2023-02-28T12:44:34;99337.81;;;2.38;57.26
73429;BME280;61643;49.564;17.412;2023-02-28T12:47:08;99329.03;;;2.37;57.91
73429;BME280;61643;49.564;17.412;2023-02-28T12:49:45;99331.31;;;2.40;57.13
73429;BME280;61643;49.564;17.412;2023-02-28T12:52:14;99323.97;;;2.42;58.28
73429;BME280;61643;49.564;17.412;2023-02-28T12:55:04;99316.97;;;2.50;57.09
73429;BME280;61643;49.564;17.412;2023-02-28T12:57:56;99323.75;;;2.52;56.72
73429;BME280;61643;49.564;17.412;2023-02-28T13:00:30;99328.19;;;2.60;57.35
73429;BME280;61643;49.564;17.412;2023-02-28T13:06:03;99323.97;;;2.65;56.55
73429;BME280;61643;49.564;17.412;2023-02-28T13:08:57;99317.34;;;2.61;56.58
73429;BME280;61643;49.564;17.412;2023-02-28T13:11:25;99313.50;;;2.49;56.17
73429;BME280;61643;49.564;17.412;2023-02-28T13:14:01;99310.84;;;2.49;56.15
73429;BME280;61643;49.564;17.412;2023-02-28T13:16:28;99313.75;;;2.54;56.93
73429;BME280;61643;49.564;17.412;2023-02-28T13:19:17;99311.66;;;2.50;56.34
73429;BME280;61643;49.564;17.412;2023-02-28T13:21:46;99305.53;;;2.49;55.62
73429;BME280;61643;49.564;17.412;2023-02-28T13:24:43;99302.81;;;2.34;56.42
73429;BME280;61643;49.564;17.412;2023-02-28T13:27:35;99309.44;;;2.38;57.34
73429;BME280;61643;49.564;17.412;2023-02-28T13:35:48;99297.81;;;2.54;56.79
73429;BME280;61643;49.564;17.412;2023-02-28T13:38:37;99299.91;;;2.44;55.85
73429;BME280;61643;49.564;17.412;2023-02-28T13:41:45;99293.22;;;2.48;57.31
73429;BME280;61643;49.564;17.412;2023-02-28T13:44:20;99290.50;;;2.56;57.50
73429;BME280;61643;49.564;17.412;2023-02-28T13:49:28;99285.00;;;2.58;56.30
73429;BME280;61643;49.564;17.412;2023-02-28T14:02:49;99287.25;;;2.46;57.43
73429;BME280;61643;49.564;17.412;2023-02-28T14:05:20;99282.78;;;2.46;58.13
73429;BME280;61643;49.564;17.412;2023-02-28T14:07:56;99285.72;;;2.52;57.03
73429;BME280;61643;49.564;17.412;2023-02-28T14:10:36;99273.81;;;2.47;57.33
73429;BME280;61643;49.564;17.412;2023-02-28T14:13:37;99279.47;;;2.44;57.79
73429;BME280;61643;49.564;17.412;2023-02-28T14:16:06;99275.06;;;2.37;57.79
73429;BME280;61643;49.564;17.412;2023-02-28T14:18:40;99275.88;;;2.37;58.03
73429;BME280;61643;49.564;17.412;2023-02-28T14:24:16;99279.78;;;2.27;58.62
73429;BME280;61643;49.564;17.412;2023-02-28T14:35:39;99274.84;;;2.24;58.82
73429;BME280;61643;49.564;17.412;2023-02-28T14:37:54;99263.31;;;2.09;58.29
73429;BME280;61643;49.564;17.412;2023-02-28T14:40:29;99275.25;;;2.13;59.45
73429;BME280;61643;49.564;17.412;2023-02-28T14:43:00;99268.75;;;2.15;59.87
73429;BME280;61643;49.564;17.412;2023-02-28T14:45:30;99261.25;;;2.19;60.00
73429;BME280;61643;49.564;17.412;2023-02-28T14:47:56;99263.13;;;2.10;58.75
73429;BME280;61643;49.564;17.412;2023-02-28T14:50:35;99266.16;;;2.07;59.97
73429;BME280;61643;49.564;17.412;2023-02-28T14:53:01;99270.81;;;2.05;59.88
73429;BME280;61643;49.564;17.412;2023-02-28T14:55:30;99265.16;;;2.08;59.32
73429;BME280;61643;49.564;17.412;2023-02-28T14:58:05;99269.09;;;2.12;58.71
73429;BME280;61643;49.564;17.412;2023-02-28T15:00:34;99260.16;;;2.13;58.48
73429;BME280;61643;49.564;17.412;2023-02-28T15:03:24;99272.75;;;2.11;59.16
73429;BME280;61643;49.564;17.412;2023-02-28T15:06:13;99270.00;;;2.05;59.39
73429;BME280;61643;49.564;17.412;2023-02-28T15:08:40;99270.50;;;2.00;60.07
73429;BME280;61643;49.564;17.412;2023-02-28T15:11:08;99268.72;;;1.92;61.28
73429;BME280;61643;49.564;17.412;2023-02-28T15:13:46;99273.97;;;1.78;61.38
73429;BME280;61643;49.564;17.412;2023-02-28T15:18:59;99273.19;;;1.69;61.27
73429;BME280;61643;49.564;17.412;2023-02-28T15:21:30;99277.00;;;1.67;61.65
73429;BME280;61643;49.564;17.412;2023-02-28T15:23:59;99274.22;;;1.60;62.57
73429;BME280;61643;49.564;17.412;2023-02-28T15:26:34;99276.38;;;1.65;61.99